createdAt,value
2023-03-22T00:03:12.670Z,0.68
2023-03-22T00:08:15.734Z,0.90
2023-03-22T00:13:17.378Z,1.17
2023-03-22T00:18:19.182Z,0.75
2023-03-22T00:23:23.464Z,1.38
2023-03-22T00:28:25.168Z,1.50
2023-03-22T00:33:27.859Z,1.10
2023-03-22T00:38:41.618Z,0.90
2023-03-22T00:43:44.962Z,1.50
2023-03-22T00:48:46.854Z,0.90
2023-03-22T00:53:49.981Z,1.20
2023-03-22T00:58:51.777Z,1.25
2023-03-22T01:03:53.547Z,0.57
2023-03-22T01:08:56.775Z,0.55
2023-03-22T01:13:58.726Z,1.05
2023-03-22T01:19:00.509Z,0.70
2023-03-22T01:24:03.961Z,0.45
2023-03-22T01:29:05.828Z,0.60
2023-03-22T01:34:07.512Z,0.63
2023-03-22T01:39:10.816Z,0.43
2023-03-22T01:44:15.190Z,0.30
2023-03-22T01:49:21.646Z,0.70
2023-03-22T01:54:30.416Z,0.40
2023-03-22T01:59:32.403Z,0.55
2023-03-22T02:04:35.915Z,0.75
2023-03-22T02:09:39.069Z,0.40
2023-03-22T02:14:56.297Z,0.45
2023-03-22T02:20:34.118Z,0.80
2023-03-22T02:26:05.073Z,0.38
2023-03-22T02:31:30.023Z,0.68
2023-03-22T02:37:03.576Z,0.38
2023-03-22T02:42:21.025Z,0.95
2023-03-22T02:47:29.092Z,0.70
2023-03-22T02:52:37.693Z,0.60
2023-03-22T02:57:48.026Z,0.70
2023-03-22T03:02:53.639Z,0.43
2023-03-22T03:07:59.492Z,0.70
2023-03-22T03:13:02.780Z,1.23
2023-03-22T03:18:18.963Z,0.98
2023-03-22T03:23:28.721Z,0.93
2023-03-22T03:28:38.771Z,1.58
2023-03-22T03:33:49.061Z,1.65
2023-03-22T03:38:54.480Z,1.40
2023-03-22T03:43:58.957Z,1.50
2023-03-22T03:49:04.048Z,1.35
2023-03-22T03:54:06.468Z,2.50
2023-03-22T03:59:09.508Z,2.47
2023-03-22T04:04:11.275Z,1.38
2023-03-22T04:09:13.026Z,1.52
2023-03-22T04:14:16.309Z,1.13
2023-03-22T04:19:18.592Z,1.63
2023-03-22T04:24:20.658Z,1.48
2023-03-22T04:29:23.720Z,1.15
2023-03-22T04:34:25.550Z,1.70
2023-03-22T04:39:27.289Z,2.38
2023-03-22T04:44:30.394Z,1.08
2023-03-22T04:49:32.261Z,1.48
2023-03-22T04:54:34.271Z,1.63
2023-03-22T04:59:37.358Z,1.35
2023-03-22T05:04:39.062Z,1.60
2023-03-22T05:09:40.978Z,1.35
2023-03-22T05:14:44.173Z,2.55
2023-03-22T05:19:45.960Z,2.25
2023-03-22T05:24:47.772Z,2.22
2023-03-22T05:29:50.775Z,1.65
2023-03-22T05:34:52.588Z,3.00
2023-03-22T05:39:54.227Z,1.83
2023-03-22T05:44:57.460Z,2.10
2023-03-22T05:49:59.207Z,1.80
2023-03-22T05:55:01.151Z,1.67
2023-03-22T06:00:05.027Z,1.25
2023-03-22T06:05:07.678Z,1.73
2023-03-22T06:10:12.615Z,2.22
2023-03-22T06:15:15.884Z,1.97
2023-03-22T06:20:19.886Z,1.42
2023-03-22T06:25:21.556Z,1.88
2023-03-22T06:30:24.976Z,1.40
2023-03-22T06:35:26.884Z,2.38
2023-03-22T06:40:28.798Z,2.72
2023-03-22T06:45:31.921Z,2.05
2023-03-22T06:50:33.568Z,2.80
2023-03-22T06:55:35.378Z,1.52
2023-03-22T07:00:39.344Z,1.73
2023-03-22T07:05:41.330Z,1.88
2023-03-22T07:10:43.145Z,2.00
2023-03-22T07:15:46.890Z,1.95
2023-03-22T07:20:48.782Z,2.40
2023-03-22T07:25:50.516Z,2.08
2023-03-22T07:31:01.104Z,1.95
2023-03-22T07:36:02.850Z,1.80
2023-03-22T07:41:05.161Z,1.63
2023-03-22T07:46:08.520Z,1.80
2023-03-22T07:51:10.219Z,2.63
2023-03-22T07:56:11.986Z,3.70
2023-03-22T08:01:15.149Z,2.30
2023-03-22T08:06:17.274Z,2.38
2023-03-22T08:11:18.918Z,3.40
2023-03-22T08:16:22.103Z,2.72
2023-03-22T08:21:23.792Z,3.20
2023-03-22T08:26:25.520Z,1.95
2023-03-22T08:31:30.398Z,2.20
2023-03-22T08:36:32.065Z,1.63
2023-03-22T08:41:33.911Z,0.60
2023-03-22T08:52:00.472Z,0.32
2023-03-22T08:57:02.329Z,0.20
2023-03-22T09:02:04.147Z,0.05
2023-03-22T09:07:07.295Z,0.10
2023-03-22T09:12:09.646Z,0.20
2023-03-22T09:17:11.301Z,0.00
2023-03-22T09:22:14.574Z,0.08
2023-03-22T09:27:16.349Z,0.13
2023-03-22T09:32:18.618Z,0.32
2023-03-22T09:37:21.629Z,0.20
2023-03-22T09:42:34.920Z,0.10
2023-03-22T09:47:44.704Z,0.00
2023-03-22T09:52:49.559Z,0.00
2023-03-22T09:58:01.789Z,0.10
2023-03-22T10:03:14.796Z,0.05
2023-03-22T10:08:29.947Z,0.00
2023-03-22T10:13:36.766Z,0.20
2023-03-22T10:18:41.592Z,0.00
2023-03-22T10:23:48.059Z,0.67
2023-03-22T10:28:56.941Z,0.10
2023-03-22T10:34:02.166Z,0.10
2023-03-22T10:39:14.429Z,0.10
2023-03-22T10:44:19.026Z,0.20
2023-03-22T10:49:27.121Z,0.10
2023-03-22T10:54:31.916Z,0.20
2023-03-22T10:59:45.132Z,0.10
2023-03-22T11:04:47.973Z,0.00
2023-03-22T11:09:57.552Z,0.10
2023-03-22T11:14:59.386Z,0.10
2023-03-22T11:20:04.569Z,0.00
2023-03-22T11:25:15.780Z,0.20
2023-03-22T11:30:21.620Z,0.00
2023-03-22T11:35:25.212Z,0.30
2023-03-22T11:40:30.655Z,0.05
2023-03-22T11:45:36.697Z,0.10
2023-03-22T11:50:42.402Z,0.00
2023-03-22T11:55:48.476Z,0.10
2023-03-22T12:00:52.125Z,0.10
2023-03-22T12:05:54.270Z,0.00
2023-03-22T12:11:01.902Z,1.20
2023-03-22T12:16:06.447Z,0.40
2023-03-22T12:21:09.961Z,0.40
2023-03-22T12:26:17.254Z,0.20
2023-03-22T12:31:22.756Z,0.10
2023-03-22T12:41:37.281Z,0.10
2023-03-22T12:46:48.377Z,0.25
2023-03-22T12:51:54.133Z,0.10
2023-03-22T12:56:57.604Z,0.10
2023-03-22T13:02:05.010Z,0.40
2023-03-22T13:07:14.352Z,0.15
2023-03-22T13:12:32.593Z,0.10
2023-03-22T13:17:40.542Z,0.17
2023-03-22T13:23:09.414Z,0.05
2023-03-22T13:28:24.372Z,0.00
2023-03-22T13:38:42.990Z,0.20
2023-03-22T13:43:48.632Z,0.00
2023-03-22T13:54:01.739Z,0.10
2023-03-22T13:59:04.922Z,0.65
2023-03-22T14:04:11.117Z,0.10
2023-03-22T14:09:22.759Z,0.00
2023-03-22T14:14:29.545Z,0.10
2023-03-22T14:19:34.300Z,0.10
